Terminal Aerodrome Forecast
Issued by NWS Bismarck, ND

Home | Current Version | Previous Version | Graphics & Text | Print | Product List | Glossary On
Versions: 1 2 3 4 5 6 7 8 9 10 11 12 13 14 15 16 17 18 19 20 21 22 23
402
FTUS43 KBIS 181720
TAFISN
TAF
KISN 181720Z 1818/1918 06008KT P6SM SCT100 BKN250
     FM190900 09007KT P6SM BKN015
     FM191300 09008KT 6SM BR OVC008
     FM191500 09008KT 4SM BR OVC005=

USA.gov is the U.S. government's official web portal to all federal, state and local government web resources and services.